Kirishima Maru No.17 — JD3391 — position and weather

sailwx.info

Track history (hours):
 
Tides and Currents Weather Stations Pressure Air Temp Water Temp Dewpoint Dewpoint Depression Visibility Wind Speed Wind Dir Waves Ship Positions

Kirishima Maru No.17

Last reported at 2018-Jul-20 10:56 UTC. Time now 2018-Jul-21 03:49 UTC.
Position N 34°28' E 134°30'.

Length 91 m; draft 5.5 m.

Type: Tanker. MMSI: 431003736.

Date/timePositionNaut miles runAvg speedWind from/ knotsBaromVisibWave heightAir tempDewpointWater temp
2018-Jul-20 10:56N 34°28' E 134°30'613.2
2018-Jul-20 10:30N 34°30' E 134°36'713.0
2018-Jul-20 09:58N 34°32' E 134°44'613.0
2018-Jul-20 09:30N 34°35' E 134°51'813.3
2018-Jul-20 08:55N 34°38' E 134°59'513.0
2018-Jul-20 08:30N 34°35' E 135°05'714.2
2018-Jul-20 08:00N 34°28' E 135°03'714.0
2018-Jul-20 07:30N 34°21' E 135°01'612.7
2018-Jul-20 07:00N 34°15' E 135°01'713.9
2018-Jul-20 06:30N 34°11' E 135°07'4 8.6
2018-Jul-20 06:00N 34°09' E 135°12'0 0.0
2018-Jul-20 01:35N 34°09' E 135°12'0 0.6
2018-Jul-20 01:30N 34°09' E 135°12'4 7.6
2018-Jul-20 01:00N 34°09' E 135°07'612.9
2018-Jul-20 00:30N 34°04' E 135°02'714.1
2018-Jul-20 00:00N 33°58' E 134°60'713.0
2018-Jul-19 23:30N 33°51' E 135°02'713.9
2018-Jul-19 22:59N 33°46' E 135°07'11 0.3
2018-Jul-18 05:32N 33°54' E 134°59'114.4
2018-Jul-18 05:29N 33°55' E 134°59'613.7
2018-Jul-18 05:00N 34°01' E 135°00'713.1
2018-Jul-18 04:30N 34°07' E 135°04'3 6.2
2018-Jul-18 04:00N 34°07' E 135°08'0 0.0
2018-Jul-17 23:56N 34°07' E 135°08'0 1.1
2018-Jul-17 23:30N 34°07' E 135°07'2 4.5
2018-Jul-17 23:00N 34°09' E 135°09'0 0.0
2018-Jul-17 22:30N 34°09' E 135°09'0 0.0
2018-Jul-17 22:00N 34°09' E 135°09'0 0.0
2018-Jul-17 21:24N 34°09' E 135°09'0 0.0
2018-Jul-17 21:00N 34°09' E 135°09'0 0.0
2018-Jul-17 20:30N 34°09' E 135°09'0 0.0
2018-Jul-17 20:00N 34°09' E 135°09'0 0.0
2018-Jul-17 19:27N 34°09' E 135°09'0 0.0
2018-Jul-17 19:00N 34°09' E 135°09'0 0.0
2018-Jul-17 18:21N 34°09' E 135°09'0 0.0
2018-Jul-17 18:00N 34°09' E 135°09'0 0.0
2018-Jul-17 17:27N 34°09' E 135°09'0 0.0
2018-Jul-17 16:57N 34°09' E 135°09'0 0.0
2018-Jul-17 16:30N 34°09' E 135°09'0 0.0
2018-Jul-17 15:57N 34°09' E 135°09'0 0.0
2018-Jul-17 15:27N 34°09' E 135°09'0 0.0
2018-Jul-17 14:57N 34°09' E 135°09'0 0.1
2018-Jul-17 14:27N 34°09' E 135°09'0 0.0
2018-Jul-17 14:00N 34°09' E 135°09'0 0.0
2018-Jul-17 13:30N 34°09' E 135°09'0 0.0
2018-Jul-17 13:00N 34°09' E 135°09'0 0.1
2018-Jul-17 12:30N 34°09' E 135°09'0 0.0
2018-Jul-17 12:00N 34°09' E 135°09'0 0.0
2018-Jul-17 11:30N 34°09' E 135°09'0 0.1
2018-Jul-17 11:00N 34°09' E 135°09'0 0.1
2018-Jul-17 10:30N 34°09' E 135°09'0 0.1
2018-Jul-17 10:00N 34°09' E 135°09'0 0.0
2018-Jul-17 09:27N 34°09' E 135°09'0 0.0
2018-Jul-17 09:00N 34°09' E 135°09'0 0.0
2018-Jul-17 08:30N 34°09' E 135°09'0 0.0
2018-Jul-17 08:00N 34°09' E 135°09'0 0.0
2018-Jul-17 07:30N 34°09' E 135°09'0 0.1
2018-Jul-17 07:00N 34°09' E 135°09'0 0.0
2018-Jul-17 06:30N 34°09' E 135°09'0 0.1
2018-Jul-17 06:00N 34°09' E 135°09'0 0.1
2018-Jul-17 05:30N 34°09' E 135°09'0 0.9
2018-Jul-17 05:00N 34°09' E 135°09'2 0.5
2018-Jul-17 00:54N 34°09' E 135°12'1 2.0
2018-Jul-17 00:31N 34°09' E 135°11'2 1.6
2018-Jul-16 23:30N 34°09' E 135°09'0 0.0
2018-Jul-16 23:00N 34°09' E 135°09'0 0.0
2018-Jul-16 22:30N 34°09' E 135°09'0 0.0
2018-Jul-16 21:57N 34°09' E 135°09'0 0.0
2018-Jul-16 21:30N 34°09' E 135°09'0 0.0
2018-Jul-16 21:00N 34°09' E 135°09'0 0.0
2018-Jul-16 20:30N 34°09' E 135°09'0 0.0
2018-Jul-16 20:00N 34°09' E 135°09'0 0.0
2018-Jul-16 19:30N 34°09' E 135°09'0 0.0
2018-Jul-16 18:51N 34°09' E 135°09'0 0.0
2018-Jul-16 18:30N 34°09' E 135°09'0 0.1
2018-Jul-16 18:00N 34°09' E 135°09'3 6.6
2018-Jul-16 17:30N 34°11' E 135°06'612.8
2018-Jul-16 17:00N 34°15' E 134°60'611.2
2018-Jul-16 16:31N 34°20' E 134°59'612.4
2018-Jul-16 16:01N 34°27' E 135°01'612.5
2018-Jul-16 15:30N 34°33' E 135°02'4 8.6
2018-Jul-16 14:59N 34°37' E 135°01'610.8
2018-Jul-16 14:25N 34°35' E 134°54'4 9.4
2018-Jul-16 14:00N 34°33' E 134°49'510.7
2018-Jul-16 13:30N 34°31' E 134°44'612.5
2018-Jul-16 13:00N 34°29' E 134°36'713.1
2018-Jul-16 12:30N 34°27' E 134°29'712.9
2018-Jul-16 12:00N 34°24' E 134°22'  
Track history (hours):
 
Tides and Currents Weather Stations Pressure Air Temp Water Temp Dewpoint Dewpoint Depression Visibility Wind Speed Wind Dir Waves Ship Positions

Kirishima Maru No.17

Last reported at 2018-Jul-20 10:56 UTC. Time now 2018-Jul-21 03:49 UTC.
Position N 34°28' E 134°30'.

Length 91 m; draft 5.5 m.

Type: Tanker. MMSI: 431003736.

Date/timePositionNaut miles runAvg speedWind from/ knotsBaromVisibWave heightAir tempDewpointWater temp
2018-Jul-20 10:56N 34°28' E 134°30'613.2
2018-Jul-20 10:30N 34°30' E 134°36'713.0
2018-Jul-20 09:58N 34°32' E 134°44'613.0
2018-Jul-20 09:30N 34°35' E 134°51'813.3
2018-Jul-20 08:55N 34°38' E 134°59'513.0
2018-Jul-20 08:30N 34°35' E 135°05'714.2
2018-Jul-20 08:00N 34°28' E 135°03'714.0
2018-Jul-20 07:30N 34°21' E 135°01'612.7
2018-Jul-20 07:00N 34°15' E 135°01'713.9
2018-Jul-20 06:30N 34°11' E 135°07'4 8.6
2018-Jul-20 06:00N 34°09' E 135°12'0 0.0
2018-Jul-20 01:35N 34°09' E 135°12'0 0.6
2018-Jul-20 01:30N 34°09' E 135°12'4 7.6
2018-Jul-20 01:00N 34°09' E 135°07'612.9
2018-Jul-20 00:30N 34°04' E 135°02'714.1
2018-Jul-20 00:00N 33°58' E 134°60'713.0
2018-Jul-19 23:30N 33°51' E 135°02'713.9
2018-Jul-19 22:59N 33°46' E 135°07'11 0.3
2018-Jul-18 05:32N 33°54' E 134°59'114.4
2018-Jul-18 05:29N 33°55' E 134°59'613.7
2018-Jul-18 05:00N 34°01' E 135°00'713.1
2018-Jul-18 04:30N 34°07' E 135°04'3 6.2
2018-Jul-18 04:00N 34°07' E 135°08'0 0.0
2018-Jul-17 23:56N 34°07' E 135°08'0 1.1
2018-Jul-17 23:30N 34°07' E 135°07'2 4.5
2018-Jul-17 23:00N 34°09' E 135°09'0 0.0
2018-Jul-17 22:30N 34°09' E 135°09'0 0.0
2018-Jul-17 22:00N 34°09' E 135°09'0 0.0
2018-Jul-17 21:24N 34°09' E 135°09'0 0.0
2018-Jul-17 21:00N 34°09' E 135°09'0 0.0
2018-Jul-17 20:30N 34°09' E 135°09'0 0.0
2018-Jul-17 20:00N 34°09' E 135°09'0 0.0
2018-Jul-17 19:27N 34°09' E 135°09'0 0.0
2018-Jul-17 19:00N 34°09' E 135°09'0 0.0
2018-Jul-17 18:21N 34°09' E 135°09'0 0.0
2018-Jul-17 18:00N 34°09' E 135°09'0 0.0
2018-Jul-17 17:27N 34°09' E 135°09'0 0.0
2018-Jul-17 16:57N 34°09' E 135°09'0 0.0
2018-Jul-17 16:30N 34°09' E 135°09'0 0.0
2018-Jul-17 15:57N 34°09' E 135°09'0 0.0
2018-Jul-17 15:27N 34°09' E 135°09'0 0.0
2018-Jul-17 14:57N 34°09' E 135°09'0 0.1
2018-Jul-17 14:27N 34°09' E 135°09'0 0.0
2018-Jul-17 14:00N 34°09' E 135°09'0 0.0
2018-Jul-17 13:30N 34°09' E 135°09'0 0.0
2018-Jul-17 13:00N 34°09' E 135°09'0 0.1
2018-Jul-17 12:30N 34°09' E 135°09'0 0.0
2018-Jul-17 12:00N 34°09' E 135°09'0 0.0
2018-Jul-17 11:30N 34°09' E 135°09'0 0.1
2018-Jul-17 11:00N 34°09' E 135°09'0 0.1
2018-Jul-17 10:30N 34°09' E 135°09'0 0.1
2018-Jul-17 10:00N 34°09' E 135°09'0 0.0
2018-Jul-17 09:27N 34°09' E 135°09'0 0.0
2018-Jul-17 09:00N 34°09' E 135°09'0 0.0
2018-Jul-17 08:30N 34°09' E 135°09'0 0.0
2018-Jul-17 08:00N 34°09' E 135°09'0 0.0
2018-Jul-17 07:30N 34°09' E 135°09'0 0.1
2018-Jul-17 07:00N 34°09' E 135°09'0 0.0
2018-Jul-17 06:30N 34°09' E 135°09'0 0.1
2018-Jul-17 06:00N 34°09' E 135°09'0 0.1
2018-Jul-17 05:30N 34°09' E 135°09'0 0.9
2018-Jul-17 05:00N 34°09' E 135°09'2 0.5
2018-Jul-17 00:54N 34°09' E 135°12'1 2.0
2018-Jul-17 00:31N 34°09' E 135°11'2 1.6
2018-Jul-16 23:30N 34°09' E 135°09'0 0.0
2018-Jul-16 23:00N 34°09' E 135°09'0 0.0
2018-Jul-16 22:30N 34°09' E 135°09'0 0.0
2018-Jul-16 21:57N 34°09' E 135°09'0 0.0
2018-Jul-16 21:30N 34°09' E 135°09'0 0.0
2018-Jul-16 21:00N 34°09' E 135°09'0 0.0
2018-Jul-16 20:30N 34°09' E 135°09'0 0.0
2018-Jul-16 20:00N 34°09' E 135°09'0 0.0
2018-Jul-16 19:30N 34°09' E 135°09'0 0.0
2018-Jul-16 18:51N 34°09' E 135°09'0 0.0
2018-Jul-16 18:30N 34°09' E 135°09'0 0.1
2018-Jul-16 18:00N 34°09' E 135°09'3 6.6
2018-Jul-16 17:30N 34°11' E 135°06'612.8
2018-Jul-16 17:00N 34°15' E 134°60'611.2
2018-Jul-16 16:31N 34°20' E 134°59'612.4
2018-Jul-16 16:01N 34°27' E 135°01'612.5
2018-Jul-16 15:30N 34°33' E 135°02'4 8.6
2018-Jul-16 14:59N 34°37' E 135°01'610.8
2018-Jul-16 14:25N 34°35' E 134°54'4 9.4
2018-Jul-16 14:00N 34°33' E 134°49'510.7
2018-Jul-16 13:30N 34°31' E 134°44'612.5
2018-Jul-16 13:00N 34°29' E 134°36'713.1
2018-Jul-16 12:30N 34°27' E 134°29'712.9
2018-Jul-16 12:00N 34°24' E 134°22'  

Dump ship's entire track history